Terminal Aerodrome Forecast
Issued by NWS

Home | Current Version | Previous Version | Text Only | Print | Product List | Glossary Off
Versions: 1 2 3 4 5 6 7 8 9 10 11 12 13

000
FTUS43 KOAX 300500
TAFCDR
TAF
KCDR 300520Z 3006/3106 02008KT P6SM SCT100
     FM300700 19007KT P6SM SKC
     FM301900 21012G20KT P6SM VCTS SCT050CB
     FM310200 21012G20KT P6SM VCSH BKN050=

USA.gov is the U.S. government's official web portal to all federal, state and local government web resources and services.